createdAt,value
2017-03-22T00:00:17.781Z,999.47
2017-03-22T00:01:17.810Z,999.45
2017-03-22T00:02:17.852Z,999.46
2017-03-22T00:03:17.886Z,999.5
2017-03-22T00:04:17.922Z,999.49
2017-03-22T00:05:17.957Z,999.51
2017-03-22T00:06:17.990Z,999.51
2017-03-22T00:07:18.018Z,999.58
2017-03-22T00:08:18.056Z,999.59
2017-03-22T00:09:18.087Z,999.54
2017-03-22T00:10:18.130Z,999.57
2017-03-22T00:11:18.164Z,999.54
2017-03-22T00:12:18.200Z,999.56
2017-03-22T00:13:18.237Z,999.57
2017-03-22T00:14:18.261Z,999.59
2017-03-22T00:15:18.304Z,999.57
2017-03-22T00:16:18.331Z,999.59
2017-03-22T00:17:18.374Z,999.6
2017-03-22T00:18:18.408Z,999.61
2017-03-22T00:19:18.435Z,999.66
2017-03-22T00:20:18.478Z,999.68
2017-03-22T00:21:18.504Z,999.68
2017-03-22T00:22:18.547Z,999.69
2017-03-22T00:23:18.575Z,999.69
2017-03-22T00:24:18.610Z,999.7
2017-03-22T00:25:18.650Z,999.68
2017-03-22T00:26:18.678Z,999.67
2017-03-22T00:27:18.721Z,999.65
2017-03-22T00:28:18.748Z,999.7
2017-03-22T00:29:18.785Z,999.74
2017-03-22T00:30:18.826Z,999.78
2017-03-22T00:31:18.857Z,999.78
2017-03-22T00:32:18.889Z,999.8
2017-03-22T00:33:18.922Z,999.81
2017-03-22T00:34:18.956Z,999.88
2017-03-22T00:35:19.000Z,999.88
2017-03-22T00:36:19.033Z,999.87
2017-03-22T00:37:19.061Z,999.9
2017-03-22T00:38:19.096Z,999.9
2017-03-22T00:39:19.133Z,999.88
2017-03-22T00:40:19.165Z,999.82
2017-03-22T00:41:19.207Z,999.86
2017-03-22T00:42:19.235Z,999.81
2017-03-22T00:43:19.278Z,999.84
2017-03-22T00:44:19.304Z,999.78
2017-03-22T00:45:19.347Z,999.75
2017-03-22T00:46:19.374Z,999.75
2017-03-22T00:47:19.416Z,999.7
2017-03-22T00:48:19.445Z,999.73
2017-03-22T00:49:19.479Z,999.7
2017-03-22T00:50:19.513Z,999.71
2017-03-22T00:51:19.548Z,999.67
2017-03-22T00:52:19.583Z,999.69
2017-03-22T00:53:19.626Z,999.68
2017-03-22T00:54:19.661Z,999.65
2017-03-22T00:55:19.688Z,999.73
2017-03-22T00:56:19.722Z,999.73
2017-03-22T00:57:19.757Z,999.74
2017-03-22T00:58:19.799Z,999.71
2017-03-22T00:59:19.826Z,999.7
2017-03-22T01:00:19.863Z,999.76
2017-03-22T01:01:19.896Z,999.74
2017-03-22T01:02:19.937Z,999.74
2017-03-22T01:03:19.974Z,999.74
2017-03-22T01:04:20.000Z,999.73
2017-03-22T01:05:20.034Z,999.76
2017-03-22T01:06:20.076Z,999.76
2017-03-22T01:07:20.111Z,999.74
2017-03-22T01:08:20.147Z,999.73
2017-03-22T01:09:20.173Z,999.74
2017-03-22T01:10:20.216Z,999.76
2017-03-22T01:11:20.250Z,999.75
2017-03-22T01:12:20.278Z,999.7
2017-03-22T01:13:20.326Z,999.69
2017-03-22T01:14:20.347Z,999.69
2017-03-22T01:15:20.385Z,999.69
2017-03-22T01:16:20.424Z,999.7
2017-03-22T01:17:20.452Z,999.7
2017-03-22T01:18:20.495Z,999.69
2017-03-22T01:19:20.530Z,999.68
2017-03-22T01:20:20.563Z,999.69
2017-03-22T01:21:20.597Z,999.68
2017-03-22T01:22:20.633Z,999.72
2017-03-22T01:23:20.669Z,999.73
2017-03-22T01:24:20.705Z,999.76
2017-03-22T01:25:20.737Z,999.76
2017-03-22T01:26:20.764Z,999.8
2017-03-22T01:27:20.799Z,999.79
2017-03-22T01:28:20.833Z,999.81
2017-03-22T01:29:20.877Z,999.9
2017-03-22T01:30:20.904Z,999.9
2017-03-22T01:31:20.944Z,999.89
2017-03-22T01:32:20.980Z,999.94
2017-03-22T01:33:21.009Z,999.93
2017-03-22T01:34:21.059Z,999.87
2017-03-22T01:35:21.084Z,999.88
2017-03-22T01:36:21.119Z,999.9
2017-03-22T01:37:21.146Z,999.89
2017-03-22T01:38:21.181Z,999.89
2017-03-22T01:39:21.223Z,999.87
2017-03-22T01:40:21.258Z,999.88
2017-03-22T01:41:21.285Z,999.85
2017-03-22T01:42:21.328Z,999.91
2017-03-22T01:43:21.354Z,999.94
2017-03-22T01:44:21.389Z,999.9
2017-03-22T01:45:21.424Z,999.88
2017-03-22T01:46:21.459Z,999.9
2017-03-22T01:47:21.501Z,999.89
2017-03-22T01:48:21.527Z,999.89
2017-03-22T01:49:21.571Z,999.84
2017-03-22T01:50:21.605Z,999.85
2017-03-22T01:51:21.638Z,999.85
2017-03-22T01:52:21.674Z,999.91
2017-03-22T01:53:21.711Z,999.87
2017-03-22T01:54:21.736Z,999.88
2017-03-22T01:55:21.778Z,999.86
2017-03-22T01:56:21.805Z,999.86
2017-03-22T01:57:21.847Z,999.88
2017-03-22T01:58:21.883Z,999.87
2017-03-22T01:59:21.910Z,999.87
2017-03-22T02:00:21.944Z,999.9
2017-03-22T02:01:21.985Z,999.87
2017-03-22T02:02:22.021Z,999.88
2017-03-22T02:03:22.047Z,999.84
2017-03-22T02:04:22.089Z,999.9
2017-03-22T02:05:22.117Z,999.88
2017-03-22T02:06:22.159Z,999.89
2017-03-22T02:07:22.186Z,999.89
2017-03-22T02:08:22.222Z,999.92
2017-03-22T02:09:22.264Z,999.93
2017-03-22T02:10:22.299Z,999.89
2017-03-22T02:11:22.324Z,999.87
2017-03-22T02:12:22.359Z,999.9
2017-03-22T02:13:22.393Z,999.96
2017-03-22T02:14:22.436Z,999.96
2017-03-22T02:15:22.462Z,999.94
2017-03-22T02:16:22.505Z,999.96
2017-03-22T02:17:22.532Z,999.96
2017-03-22T02:18:22.567Z,999.97
2017-03-22T02:19:22.609Z,999.91
2017-03-22T02:20:22.643Z,999.96
2017-03-22T02:21:22.679Z,1000.01
2017-03-22T02:22:22.704Z,999.97
2017-03-22T02:23:22.741Z,1000.02
2017-03-22T02:24:22.775Z,1000.03
2017-03-22T02:25:22.818Z,1000.07
2017-03-22T02:26:22.843Z,1000.07
2017-03-22T02:27:22.878Z,1000.08
2017-03-22T02:28:22.913Z,1000.05
2017-03-22T02:29:22.948Z,1000.06
2017-03-22T02:30:22.990Z,1000.04
2017-03-22T02:31:23.016Z,1000.04
2017-03-22T02:32:23.051Z,1000.06
2017-03-22T02:33:23.099Z,1000.03
2017-03-22T02:34:23.127Z,1000.03
2017-03-22T02:35:23.162Z,1000.04
2017-03-22T02:36:23.189Z,1000.05
2017-03-22T02:37:23.224Z,1000.02
2017-03-22T02:38:23.258Z,1000.05
2017-03-22T02:39:23.294Z,1000.09
2017-03-22T02:40:23.344Z,1000.09
2017-03-22T02:41:23.369Z,1000.11
2017-03-22T02:42:23.396Z,1000.15
2017-03-22T02:43:23.431Z,1000.16
2017-03-22T02:44:23.474Z,1000.16
2017-03-22T02:45:23.508Z,1000.13
2017-03-22T02:46:23.535Z,1000.18
2017-03-22T02:47:23.569Z,1000.17
2017-03-22T02:48:23.613Z,1000.19
2017-03-22T02:49:23.649Z,1000.21
2017-03-22T02:50:23.681Z,1000.22
2017-03-22T02:51:23.716Z,1000.2
2017-03-22T02:52:23.743Z,1000.25
2017-03-22T02:53:23.786Z,1000.22
2017-03-22T02:54:23.821Z,1000.24
2017-03-22T02:55:23.846Z,1000.24
2017-03-22T02:56:23.882Z,1000.17
2017-03-22T02:57:23.916Z,1000.22
2017-03-22T02:58:23.951Z,1000.2
2017-03-22T02:59:23.991Z,1000.19
2017-03-22T03:00:24.019Z,1000.23
2017-03-22T03:01:24.061Z,1000.23
2017-03-22T03:02:24.087Z,1000.2
2017-03-22T03:03:24.123Z,1000.17
2017-03-22T03:04:24.157Z,1000.18
2017-03-22T03:05:24.200Z,1000.19
2017-03-22T03:06:24.234Z,1000.24
2017-03-22T03:07:24.261Z,1000.24
2017-03-22T03:08:24.304Z,1000.31
2017-03-22T03:09:24.330Z,1000.31
2017-03-22T03:10:24.363Z,1000.33
2017-03-22T03:11:24.398Z,1000.32
2017-03-22T03:12:24.433Z,1000.38
2017-03-22T03:13:24.476Z,1000.36
2017-03-22T03:14:24.509Z,1000.37
2017-03-22T03:15:24.544Z,1000.37
2017-03-22T03:16:24.571Z,1000.34
2017-03-22T03:17:24.604Z,1000.4
2017-03-22T03:18:24.641Z,1000.38
2017-03-22T03:19:24.683Z,1000.44
2017-03-22T03:20:24.717Z,1000.47
2017-03-22T03:21:24.743Z,1000.45
2017-03-22T03:22:24.777Z,1000.47
2017-03-22T03:23:24.821Z,1000.47
2017-03-22T03:24:24.853Z,1000.45
2017-03-22T03:25:24.892Z,1000.42
2017-03-22T03:26:24.914Z,1000.42
2017-03-22T03:27:24.949Z,1000.41
2017-03-22T03:28:24.991Z,1000.37
2017-03-22T03:29:25.026Z,1000.36
2017-03-22T03:30:25.064Z,1000.34
2017-03-22T03:31:25.087Z,1000.36
2017-03-22T03:32:25.122Z,1000.34
2017-03-22T03:33:25.155Z,1000.33
2017-03-22T03:34:25.199Z,1000.37
2017-03-22T03:35:25.231Z,1000.35
2017-03-22T03:36:25.258Z,1000.37
2017-03-22T03:37:25.301Z,1000.38
2017-03-22T03:38:25.327Z,1000.38
2017-03-22T03:39:25.362Z,1000.37
2017-03-22T03:40:25.395Z,1000.37
2017-03-22T03:41:25.430Z,1000.35
2017-03-22T03:42:25.472Z,1000.33
2017-03-22T03:43:25.498Z,1000.33
2017-03-22T03:44:25.533Z,1000.31
2017-03-22T03:45:25.574Z,1000.3
2017-03-22T03:46:25.601Z,1000.31
2017-03-22T03:47:25.636Z,1000.32
2017-03-22T03:48:25.678Z,1000.33
2017-03-22T03:49:25.713Z,1000.31
2017-03-22T03:50:25.746Z,1000.32
2017-03-22T03:51:25.773Z,1000.33
2017-03-22T03:52:25.815Z,1000.32
2017-03-22T03:53:25.842Z,1000.35
2017-03-22T03:54:25.875Z,1000.37
2017-03-22T03:55:25.917Z,1000.35
2017-03-22T03:56:25.952Z,1000.39
2017-03-22T03:57:25.985Z,1000.36
2017-03-22T03:58:26.012Z,1000.4
2017-03-22T03:59:26.055Z,1000.35
2017-03-22T04:00:26.089Z,1000.37
2017-03-22T04:01:26.116Z,1000.36
2017-03-22T04:02:26.149Z,1000.37
2017-03-22T04:03:26.191Z,1000.36
2017-03-22T04:04:26.218Z,1000.35
2017-03-22T04:05:26.259Z,1000.33
2017-03-22T04:06:26.294Z,1000.35
2017-03-22T04:07:26.328Z,1000.34
2017-03-22T04:08:26.362Z,1000.33
2017-03-22T04:09:26.389Z,1000.33
2017-03-22T04:10:26.431Z,1000.32
2017-03-22T04:11:26.465Z,1000.34
2017-03-22T04:12:26.499Z,1000.28
2017-03-22T04:13:26.533Z,1000.34
2017-03-22T04:14:26.567Z,1000.33
2017-03-22T04:15:26.594Z,1000.35
2017-03-22T04:16:26.635Z,1000.34
2017-03-22T04:17:26.662Z,1000.32
2017-03-22T04:18:26.696Z,1000.37
2017-03-22T04:19:26.744Z,1000.39
2017-03-22T04:20:26.763Z,1000.39
2017-03-22T04:21:26.797Z,1000.38
2017-03-22T04:22:26.832Z,1000.37
2017-03-22T04:23:26.875Z,1000.39
2017-03-22T04:24:26.907Z,1000.37
2017-03-22T04:25:26.942Z,1000.38
2017-03-22T04:26:26.968Z,1000.37
2017-03-22T04:27:27.011Z,1000.35
2017-03-22T04:28:27.045Z,1000.32
2017-03-22T04:29:27.072Z,1000.36
2017-03-22T04:30:27.112Z,1000.36
2017-03-22T04:31:27.139Z,1000.38
2017-03-22T04:32:27.173Z,1000.38
2017-03-22T04:33:27.208Z,1000.38
2017-03-22T04:34:27.249Z,1000.43
2017-03-22T04:35:27.283Z,1000.47
2017-03-22T04:36:27.309Z,1000.5
2017-03-22T04:37:27.350Z,1000.48
2017-03-22T04:38:27.386Z,1000.44
2017-03-22T04:39:27.419Z,1000.47
2017-03-22T04:40:27.454Z,1000.47
2017-03-22T04:41:27.480Z,1000.48
2017-03-22T04:42:27.514Z,1000.49
2017-03-22T04:43:27.548Z,1000.48
2017-03-22T04:44:27.614Z,1000.51
2017-03-22T04:45:27.624Z,1000.51
2017-03-22T04:46:27.658Z,1000.53
2017-03-22T04:47:27.693Z,1000.53
2017-03-22T04:48:27.719Z,1000.56
2017-03-22T04:49:27.752Z,1000.54
2017-03-22T04:50:27.785Z,1000.53
2017-03-22T04:51:27.820Z,1000.52
2017-03-22T04:52:27.861Z,1000.57
2017-03-22T04:53:27.888Z,1000.56
2017-03-22T04:54:27.931Z,1000.55
2017-03-22T04:55:27.957Z,1000.55
2017-03-22T04:56:27.997Z,1000.53
2017-03-22T04:57:28.033Z,1000.55
2017-03-22T04:58:28.058Z,1000.53
2017-03-22T04:59:28.093Z,1000.52
2017-03-22T05:00:28.127Z,1000.53
2017-03-22T05:01:28.168Z,1000.58
2017-03-22T05:02:28.194Z,1000.55
2017-03-22T05:03:28.228Z,1000.61
2017-03-22T05:04:28.270Z,1000.63
2017-03-22T05:05:28.304Z,1000.56
2017-03-22T05:06:28.338Z,1000.59
2017-03-22T05:07:28.364Z,1000.57
2017-03-22T05:08:28.411Z,1000.56
2017-03-22T05:09:28.433Z,1000.58
2017-03-22T05:10:28.473Z,1000.63
2017-03-22T05:11:28.507Z,1000.63
2017-03-22T05:12:28.542Z,1000.68
2017-03-22T05:13:28.569Z,1000.71
2017-03-22T05:14:28.610Z,1000.76
2017-03-22T05:15:28.643Z,1000.79
2017-03-22T05:16:28.678Z,1000.81
2017-03-22T05:17:28.712Z,1000.82
2017-03-22T05:18:28.748Z,1000.84
2017-03-22T05:19:28.772Z,1000.85
2017-03-22T05:20:28.806Z,1000.89
2017-03-22T05:21:28.839Z,1000.91
2017-03-22T05:22:28.886Z,1000.93
2017-03-22T05:23:28.908Z,1000.93
2017-03-22T05:24:28.942Z,1000.9
2017-03-22T05:25:28.983Z,1000.92
2017-03-22T05:26:29.009Z,1000.92
2017-03-22T05:27:29.051Z,1000.89
2017-03-22T05:28:29.087Z,1000.95
2017-03-22T05:29:29.111Z,1000.91
2017-03-22T05:30:29.148Z,1000.93
2017-03-22T05:31:29.188Z,1000.97
2017-03-22T05:32:29.229Z,1001
2017-03-22T05:33:29.255Z,1000.99
2017-03-22T05:34:29.289Z,1001.01
2017-03-22T05:35:29.323Z,1001
2017-03-22T05:36:29.349Z,1001.01
2017-03-22T05:37:29.382Z,1001.02
2017-03-22T05:38:29.425Z,1001.06
2017-03-22T05:39:29.458Z,1001.06
2017-03-22T05:40:29.493Z,1001.11
2017-03-22T05:41:29.526Z,1001.13
2017-03-22T05:42:29.561Z,1001.17
2017-03-22T05:43:29.586Z,1001.24
2017-03-22T05:44:29.627Z,1001.23
2017-03-22T05:45:29.655Z,1001.28
2017-03-22T05:46:29.689Z,1001.27
2017-03-22T05:47:29.721Z,1001.26
2017-03-22T05:48:29.757Z,1001.29
2017-03-22T05:49:29.790Z,1001.28
2017-03-22T05:50:29.824Z,1001.26
2017-03-22T05:51:29.865Z,1001.25
2017-03-22T05:52:29.892Z,1001.23
2017-03-22T05:53:29.935Z,1001.21
2017-03-22T05:54:29.969Z,1001.24
2017-03-22T05:55:29.996Z,1001.29
2017-03-22T05:56:30.028Z,1001.27
2017-03-22T05:57:30.064Z,1001.25
2017-03-22T05:58:30.105Z,1001.23
2017-03-22T05:59:30.130Z,1001.25
2017-03-22T06:00:30.173Z,1001.28
2017-03-22T06:01:30.206Z,1001.29
2017-03-22T06:02:30.234Z,1001.27
2017-03-22T06:03:30.268Z,1001.3
2017-03-22T06:04:30.311Z,1001.26
2017-03-22T06:05:30.337Z,1001.27
2017-03-22T06:06:30.377Z,1001.28
2017-03-22T06:07:30.412Z,1001.25
2017-03-22T06:08:30.439Z,1001.27
2017-03-22T06:09:30.480Z,1001.24
2017-03-22T06:10:30.515Z,1001.25
2017-03-22T06:11:30.541Z,1001.21
2017-03-22T06:12:30.575Z,1001.2
2017-03-22T06:13:30.617Z,1001.2
2017-03-22T06:14:30.643Z,1001.2
2017-03-22T06:15:30.678Z,1001.21
2017-03-22T06:16:30.719Z,1001.19
2017-03-22T06:17:30.752Z,1001.21
2017-03-22T06:18:30.795Z,1001.2
2017-03-22T06:19:30.818Z,1001.17
2017-03-22T06:20:30.847Z,1001.19
2017-03-22T06:21:30.890Z,1001.17
2017-03-22T06:22:30.935Z,1001.13
2017-03-22T06:23:30.959Z,1001.17
2017-03-22T06:24:30.985Z,1001.17
2017-03-22T06:25:31.027Z,1001.19
2017-03-22T06:26:31.061Z,1001.22
2017-03-22T06:27:31.088Z,1001.27
2017-03-22T06:28:31.122Z,1001.3
2017-03-22T06:29:31.157Z,1001.32
2017-03-22T06:30:31.199Z,1001.33
2017-03-22T06:31:31.225Z,1001.31
2017-03-22T06:32:31.259Z,1001.32
2017-03-22T06:33:31.294Z,1001.31
2017-03-22T06:34:31.337Z,1001.31
2017-03-22T06:35:31.371Z,1001.31
2017-03-22T06:36:31.434Z,1001.31
2017-03-22T06:37:31.440Z,1001.32
2017-03-22T06:38:31.467Z,1001.28
2017-03-22T06:39:31.502Z,1001.33
2017-03-22T06:40:31.535Z,1001.33
2017-03-22T06:41:31.570Z,1001.38
2017-03-22T06:42:31.613Z,1001.38
2017-03-22T06:43:31.640Z,1001.39
2017-03-22T06:44:31.683Z,1001.44
2017-03-22T06:45:31.707Z,1001.43
2017-03-22T06:46:31.746Z,1001.43
2017-03-22T06:47:31.777Z,1001.45
2017-03-22T06:48:31.813Z,1001.46
2017-03-22T06:49:31.845Z,1001.45
2017-03-22T06:50:31.880Z,1001.45
2017-03-22T06:51:31.916Z,1001.42
2017-03-22T06:52:31.954Z,1001.5
2017-03-22T06:53:31.991Z,1001.49
2017-03-22T06:54:32.027Z,1001.47
2017-03-22T06:55:32.054Z,1001.5
2017-03-22T06:56:32.096Z,1001.44
2017-03-22T06:57:32.133Z,1001.4
2017-03-22T06:58:32.158Z,1001.42
2017-03-22T06:59:32.201Z,1001.41
2017-03-22T07:00:32.227Z,1001.41
2017-03-22T07:01:32.270Z,1001.41
2017-03-22T07:02:32.297Z,1001.4
2017-03-22T07:03:32.333Z,1001.4
2017-03-22T07:04:32.366Z,1001.41
2017-03-22T07:05:32.408Z,1001.39
2017-03-22T07:06:32.444Z,1001.43
2017-03-22T07:07:32.478Z,1001.39
2017-03-22T07:08:32.513Z,1001.45
2017-03-22T07:09:32.539Z,1001.45
2017-03-22T07:10:32.575Z,1001.45
2017-03-22T07:11:32.608Z,1001.51
2017-03-22T07:12:32.652Z,1001.5
2017-03-22T07:13:32.680Z,1001.52
2017-03-22T07:14:32.723Z,1001.55
2017-03-22T07:15:32.749Z,1001.59
2017-03-22T07:16:32.792Z,1001.56
2017-03-22T07:17:32.827Z,1001.59
2017-03-22T07:18:32.862Z,1001.59
2017-03-22T07:19:32.934Z,1001.63
2017-03-22T07:20:32.925Z,1001.6
2017-03-22T07:21:32.979Z,1001.63
2017-03-22T07:22:33.208Z,1001.63
2017-03-22T07:23:33.031Z,1001.62
2017-03-22T07:24:33.081Z,1001.62
2017-03-22T07:25:33.101Z,1001.65
2017-03-22T07:26:33.165Z,1001.63
2017-03-22T07:27:33.177Z,1001.63
2017-03-22T07:28:33.309Z,1001.69
2017-03-22T07:29:33.243Z,1001.69
2017-03-22T07:30:33.287Z,1001.65
2017-03-22T07:31:33.482Z,1001.71
2017-03-22T07:32:33.352Z,1001.66
2017-03-22T07:33:33.387Z,1001.72
2017-03-22T07:34:33.423Z,1001.71
2017-03-22T07:35:33.460Z,1001.65
2017-03-22T07:36:33.494Z,1001.68
2017-03-22T07:37:33.604Z,1001.68
2017-03-22T07:38:33.569Z,1001.67
2017-03-22T07:39:33.881Z,1001.66
2017-03-22T07:40:33.648Z,1001.66
2017-03-22T07:41:33.683Z,1001.69
2017-03-22T07:42:33.715Z,1001.67
2017-03-22T07:43:33.750Z,1001.67
2017-03-22T07:44:33.791Z,1001.63
2017-03-22T07:45:33.827Z,1001.66
2017-03-22T07:46:33.855Z,1001.65
2017-03-22T07:47:33.905Z,1001.69
2017-03-22T07:48:33.935Z,1001.72
2017-03-22T07:49:33.963Z,1001.71
2017-03-22T07:50:34.002Z,1001.71
2017-03-22T07:51:34.034Z,1001.69
2017-03-22T07:52:34.071Z,1001.76
2017-03-22T07:53:34.114Z,1001.82
2017-03-22T07:54:34.187Z,1001.86
2017-03-22T07:55:34.190Z,1001.87
2017-03-22T07:56:34.221Z,1001.87
2017-03-22T07:57:34.257Z,1001.87
2017-03-22T07:58:34.293Z,1001.85
2017-03-22T07:59:34.320Z,1001.82
2017-03-22T08:00:34.361Z,1001.79
2017-03-22T08:01:34.393Z,1001.79
2017-03-22T08:02:34.428Z,1001.78
2017-03-22T08:03:34.465Z,1001.78
2017-03-22T08:04:34.506Z,1001.78
2017-03-22T08:05:34.552Z,1001.77
2017-03-22T08:06:34.593Z,1001.77
2017-03-22T08:07:34.614Z,1001.77
2017-03-22T08:08:34.655Z,1001.8
2017-03-22T08:09:34.679Z,1001.84
2017-03-22T08:10:34.758Z,1001.87
2017-03-22T08:11:34.770Z,1001.9
2017-03-22T08:12:34.794Z,1001.96
2017-03-22T08:13:34.823Z,1001.99
2017-03-22T08:14:34.858Z,1002.01
2017-03-22T08:15:34.901Z,1002
2017-03-22T08:16:34.949Z,1002.01
2017-03-22T08:17:34.987Z,1001.98
2017-03-22T08:18:35.047Z,1001.9
2017-03-22T08:19:35.046Z,1001.96
2017-03-22T08:20:35.166Z,1001.88
2017-03-22T08:21:35.126Z,1001.89
2017-03-22T08:22:35.148Z,1001.87
2017-03-22T08:23:35.185Z,1001.88
2017-03-22T08:24:35.227Z,1001.88
2017-03-22T08:25:35.257Z,1001.9
2017-03-22T08:26:35.294Z,1001.91
2017-03-22T08:27:35.330Z,1001.95
2017-03-22T08:28:35.374Z,1001.92
2017-03-22T08:29:35.402Z,1001.93
2017-03-22T08:30:35.446Z,1001.87
2017-03-22T08:31:35.484Z,1002
2017-03-22T08:32:35.510Z,1001.9
2017-03-22T08:33:35.556Z,1001.91
2017-03-22T08:34:35.585Z,1001.98
2017-03-22T08:35:35.617Z,1001.96
2017-03-22T08:36:35.660Z,1001.97
2017-03-22T08:37:35.707Z,1001.99
2017-03-22T08:38:35.737Z,1002.06
2017-03-22T08:39:35.768Z,1002.12
2017-03-22T08:40:35.798Z,1002.11
2017-03-22T08:41:35.834Z,1002.12
2017-03-22T08:42:35.869Z,1002.14
2017-03-22T08:43:35.914Z,1002.14
2017-03-22T08:44:35.949Z,1002.16
2017-03-22T08:45:35.993Z,1002.17
2017-03-22T08:46:36.014Z,1002.17
2017-03-22T08:47:36.058Z,1002.17
2017-03-22T08:48:36.095Z,1002.16
2017-03-22T08:49:36.122Z,1002.17
2017-03-22T08:50:36.176Z,1002.13
2017-03-22T08:51:36.205Z,1002.11
2017-03-22T08:52:36.250Z,1002.15
2017-03-22T08:53:36.269Z,1002.11
2017-03-22T08:54:36.315Z,1002.21
2017-03-22T08:55:36.354Z,1002.23
2017-03-22T08:56:36.392Z,1002.29
2017-03-22T08:57:36.420Z,1002.27
2017-03-22T08:58:36.466Z,1002.2
2017-03-22T08:59:36.505Z,1002.22
2017-03-22T09:00:36.540Z,1002.22
2017-03-22T09:01:36.577Z,1002.24
2017-03-22T09:02:36.626Z,1002.23
2017-03-22T09:03:36.645Z,1002.24
2017-03-22T09:04:36.702Z,1002.22
2017-03-22T09:05:36.719Z,1002.25
2017-03-22T09:06:36.756Z,1002.27
2017-03-22T09:07:36.793Z,1002.27
2017-03-22T09:08:36.831Z,1002.22
2017-03-22T09:09:36.866Z,1002.22
2017-03-22T09:10:36.912Z,1002.25
2017-03-22T09:11:36.943Z,1002.25
2017-03-22T09:12:36.986Z,1002.26
2017-03-22T09:13:37.025Z,1002.23
2017-03-22T09:14:37.061Z,1002.22
2017-03-22T09:15:37.096Z,1002.2
2017-03-22T09:16:37.134Z,1002.23
2017-03-22T09:17:37.162Z,1002.27
2017-03-22T09:18:37.207Z,1002.24
2017-03-22T09:19:37.247Z,1002.18
2017-03-22T09:20:37.273Z,1002.27
2017-03-22T09:21:37.321Z,1002.23
2017-03-22T09:22:37.346Z,1002.25
2017-03-22T09:23:37.384Z,1002.3
2017-03-22T09:24:37.420Z,1002.3
2017-03-22T09:25:37.464Z,1002.2
2017-03-22T09:26:37.492Z,1002.26
2017-03-22T09:27:37.530Z,1002.28
2017-03-22T09:28:37.567Z,1002.21
2017-03-22T09:29:37.606Z,1002.22
2017-03-22T09:30:37.651Z,1002.22
2017-03-22T09:31:37.714Z,1002.19
2017-03-22T09:32:37.729Z,1002.19
2017-03-22T09:33:37.765Z,1002.1
2017-03-22T09:34:37.798Z,1002.11
2017-03-22T09:35:37.847Z,1002.15
2017-03-22T09:36:37.886Z,1002.17
2017-03-22T09:37:37.919Z,1002.16
2017-03-22T09:38:37.984Z,1002.25
2017-03-22T09:39:37.998Z,1002.27
2017-03-22T09:40:38.039Z,1002.25
2017-03-22T09:41:38.093Z,1002.32
2017-03-22T09:42:38.129Z,1002.28
2017-03-22T09:43:38.170Z,1002.27
2017-03-22T09:44:38.203Z,1002.29
2017-03-22T09:45:38.244Z,1002.16
2017-03-22T09:46:38.289Z,1002.23
2017-03-22T09:47:38.328Z,1002.22
2017-03-22T09:48:38.368Z,1002.22
2017-03-22T09:49:38.419Z,1002.2
2017-03-22T09:50:38.452Z,1002.19
2017-03-22T09:51:38.493Z,1002.18
2017-03-22T09:52:38.538Z,1002.17
2017-03-22T09:53:38.585Z,1002.21
2017-03-22T09:54:38.619Z,1002.26
2017-03-22T09:55:38.661Z,1002.23
2017-03-22T09:56:38.710Z,1002.23
2017-03-22T09:57:38.745Z,1002.23
2017-03-22T09:58:38.789Z,1002.29
2017-03-22T09:59:38.838Z,1002.24
2017-03-22T10:00:38.873Z,1002.24
2017-03-22T10:01:38.916Z,1002.2
2017-03-22T10:02:38.960Z,1002.22
2017-03-22T10:03:39.001Z,1002.21
2017-03-22T10:04:39.053Z,1002.15
2017-03-22T10:05:39.088Z,1002.14
2017-03-22T10:06:39.130Z,1002.23
2017-03-22T10:07:39.172Z,1002.24
2017-03-22T10:08:39.215Z,1002.25
2017-03-22T10:09:39.261Z,1002.28
2017-03-22T10:10:39.311Z,1002.33
2017-03-22T10:11:39.355Z,1002.19
2017-03-22T10:12:39.391Z,1002.28
2017-03-22T10:13:39.437Z,1002.26
2017-03-22T10:14:39.482Z,1002.27
2017-03-22T10:15:39.514Z,1002.27
2017-03-22T10:16:39.567Z,1002.26
2017-03-22T10:17:39.606Z,1002.2
2017-03-22T10:18:39.640Z,1002.21
2017-03-22T10:19:39.683Z,1002.24
2017-03-22T10:20:39.732Z,1002.26
2017-03-22T10:21:39.774Z,1002.31
2017-03-22T10:22:39.817Z,1002.24
2017-03-22T10:23:39.849Z,1002.29
2017-03-22T10:24:39.906Z,1002.26
2017-03-22T10:25:39.986Z,1002.23
2017-03-22T10:26:40.016Z,1002.23
2017-03-22T10:27:40.014Z,1002.22
2017-03-22T10:28:40.055Z,1002.2
2017-03-22T10:29:40.103Z,1002.27
2017-03-22T10:30:40.145Z,1002.25
2017-03-22T10:31:40.190Z,1002.22
2017-03-22T10:32:40.219Z,1002.2
2017-03-22T10:33:40.268Z,1002.24
2017-03-22T10:34:40.309Z,1002.24
2017-03-22T10:35:40.351Z,1002.15
2017-03-22T10:36:40.392Z,1002.26
2017-03-22T10:37:40.433Z,1002.23
2017-03-22T10:38:40.473Z,1002.26
2017-03-22T10:39:40.507Z,1002.23
2017-03-22T10:40:40.547Z,1002.26
2017-03-22T10:41:40.590Z,1002.26
2017-03-22T10:42:40.630Z,1002.26
2017-03-22T10:43:40.670Z,1002.26
2017-03-22T10:44:40.713Z,1002.28
2017-03-22T10:45:40.752Z,1002.26
2017-03-22T10:46:40.801Z,1002.21
2017-03-22T10:47:40.838Z,1002.21
2017-03-22T10:48:40.875Z,1002.24
2017-03-22T10:49:40.915Z,1002.24
2017-03-22T10:50:40.955Z,1002.2
2017-03-22T10:51:41.003Z,1002.32
2017-03-22T10:52:41.044Z,1002.28
2017-03-22T10:53:41.085Z,1002.29
2017-03-22T10:54:41.124Z,1002.23
2017-03-22T10:55:41.158Z,1002.26
2017-03-22T10:56:41.207Z,1002.31
2017-03-22T10:57:41.250Z,1002.29
2017-03-22T10:58:41.309Z,1002.33
2017-03-22T10:59:41.319Z,1002.28
2017-03-22T11:00:41.377Z,1002.28
2017-03-22T11:01:41.399Z,1002.26
2017-03-22T11:02:41.448Z,1002.28
2017-03-22T11:03:41.481Z,1002.25
2017-03-22T11:04:41.521Z,1002.3
2017-03-22T11:05:41.559Z,1002.29
2017-03-22T11:06:41.600Z,1002.4
2017-03-22T11:07:41.648Z,1002.35
2017-03-22T11:08:41.679Z,1002.3
2017-03-22T11:09:41.720Z,1002.36
2017-03-22T11:10:41.761Z,1002.41
2017-03-22T11:11:41.800Z,1002.36
2017-03-22T11:12:41.838Z,1002.3
2017-03-22T11:13:41.879Z,1002.3
2017-03-22T11:14:41.919Z,1002.35
2017-03-22T11:15:41.958Z,1002.29
2017-03-22T11:16:42.030Z,1002.31
2017-03-22T11:17:42.039Z,1002.27
2017-03-22T11:18:42.094Z,1002.32
2017-03-22T11:19:42.119Z,1002.31
2017-03-22T11:20:42.168Z,1002.37
2017-03-22T11:21:42.209Z,1002.35
2017-03-22T11:22:42.249Z,1002.36
2017-03-22T11:23:42.282Z,1002.45
2017-03-22T11:24:42.323Z,1002.3
2017-03-22T11:25:42.374Z,1002.37
2017-03-22T11:26:42.405Z,1002.29
2017-03-22T11:27:42.456Z,1002.18
2017-03-22T11:28:42.495Z,1002.23
2017-03-22T11:29:42.529Z,1002.25
2017-03-22T11:30:42.576Z,1002.29
2017-03-22T11:31:42.610Z,1002.29
2017-03-22T11:32:42.652Z,1002.26
2017-03-22T11:33:42.691Z,1002.28
2017-03-22T11:34:42.740Z,1002.34
2017-03-22T11:35:42.773Z,1002.37
2017-03-22T11:36:42.814Z,1002.41
2017-03-22T11:37:42.854Z,1002.39
2017-03-22T11:38:42.894Z,1002.42
2017-03-22T11:39:42.934Z,1002.38
2017-03-22T11:40:42.976Z,1002.38
2017-03-22T11:41:43.015Z,1002.41
2017-03-22T11:42:43.055Z,1002.43
2017-03-22T11:43:43.096Z,1002.45
2017-03-22T11:44:43.137Z,1002.39
2017-03-22T11:45:43.177Z,1002.4
2017-03-22T11:46:43.216Z,1002.42
2017-03-22T11:47:43.259Z,1002.37
2017-03-22T11:48:43.298Z,1002.37
2017-03-22T11:49:43.337Z,1002.39
2017-03-22T11:50:43.385Z,1002.42
2017-03-22T11:51:43.418Z,1002.4
2017-03-22T11:52:43.457Z,1002.32
2017-03-22T11:53:43.506Z,1002.35
2017-03-22T11:54:43.545Z,1002.31
2017-03-22T11:55:43.578Z,1002.42
2017-03-22T11:56:43.617Z,1002.32
2017-03-22T11:57:43.668Z,1002.42
2017-03-22T11:58:43.772Z,1002.41
2017-03-22T11:59:43.745Z,1002.36
2017-03-22T12:00:43.784Z,1002.36
2017-03-22T12:01:43.824Z,1002.33
2017-03-22T12:02:43.862Z,1002.33
2017-03-22T12:03:43.894Z,1002.38
2017-03-22T12:04:43.935Z,1002.32
2017-03-22T12:05:43.985Z,1002.38
2017-03-22T12:06:44.014Z,1002.43
2017-03-22T12:07:44.060Z,1002.33
2017-03-22T12:08:44.093Z,1002.35
2017-03-22T12:09:44.132Z,1002.36
2017-03-22T12:10:44.170Z,1002.33
2017-03-22T12:11:44.211Z,1002.29
2017-03-22T12:12:44.251Z,1002.3